createdAt,value
2019-04-03T00:02:43.690Z,61.30
2019-04-03T00:05:35.928Z,61.30
2019-04-03T00:08:34.770Z,61.30
2019-04-03T00:11:39.329Z,61.30
2019-04-03T00:14:33.139Z,61.20
2019-04-03T00:17:26.179Z,61.20
2019-04-03T00:20:19.983Z,61.40
2019-04-03T00:23:12.362Z,61.50
2019-04-03T00:26:04.307Z,61.40
2019-04-03T00:28:56.268Z,61.50
2019-04-03T00:31:49.392Z,61.60
2019-04-03T00:34:41.407Z,61.40
2019-04-03T00:37:33.704Z,61.50
2019-04-03T00:40:26.737Z,61.40
2019-04-03T00:43:18.740Z,60.60
2019-04-03T00:46:10.227Z,61.60
2019-04-03T00:49:03.880Z,61.50
2019-04-03T00:51:57.352Z,61.60
2019-04-03T00:54:50.543Z,61.50
2019-04-03T00:57:43.059Z,61.50
2019-04-03T01:00:34.906Z,61.60
2019-04-03T01:03:28.708Z,61.60
2019-04-03T01:06:29.755Z,61.80
2019-04-03T01:09:22.847Z,61.90
2019-04-03T01:12:35.367Z,62.10
2019-04-03T01:15:28.127Z,62.40
2019-04-03T01:18:25.528Z,62.50
2019-04-03T01:21:17.265Z,62.60
2019-04-03T01:24:15.262Z,62.60
2019-04-03T01:27:13.038Z,62.60
2019-04-03T01:30:05.021Z,62.60
2019-04-03T01:32:57.846Z,62.60
2019-04-03T01:35:49.732Z,62.50
2019-04-03T01:38:41.609Z,62.30
2019-04-03T01:41:43.911Z,62.20
2019-04-03T01:44:38.151Z,62.20
2019-04-03T01:47:29.892Z,62.00
2019-04-03T01:50:21.714Z,61.80
2019-04-03T01:53:20.901Z,61.90
2019-04-03T01:56:25.252Z,62.10
2019-04-03T01:59:18.408Z,61.90
2019-04-03T02:02:11.283Z,62.00
2019-04-03T02:05:12.195Z,62.30
2019-04-03T02:08:04.306Z,62.60
2019-04-03T02:10:56.139Z,63.10
2019-04-03T02:13:47.773Z,63.30
2019-04-03T02:16:39.582Z,63.30
2019-04-03T02:19:39.335Z,63.80
2019-04-03T02:22:32.487Z,63.70
2019-04-03T02:25:24.226Z,63.60
2019-04-03T02:28:17.676Z,63.20
2019-04-03T02:31:09.350Z,63.10
2019-04-03T02:34:02.320Z,63.00
2019-04-03T02:36:55.453Z,63.30
2019-04-03T02:39:46.961Z,62.70
2019-04-03T02:42:42.485Z,62.20
2019-04-03T02:45:39.994Z,63.10
2019-04-03T02:48:31.426Z,61.30
2019-04-03T02:51:26.024Z,60.90
2019-04-03T02:54:37.271Z,60.70
2019-04-03T02:57:29.977Z,60.40
2019-04-03T03:00:33.617Z,60.10
2019-04-03T03:03:32.826Z,60.10
2019-04-03T03:06:25.102Z,60.00
2019-04-03T03:09:16.708Z,60.00
2019-04-03T03:12:09.726Z,60.20
2019-04-03T03:15:02.045Z,60.00
2019-04-03T03:17:55.905Z,59.90
2019-04-03T03:20:47.935Z,59.90
2019-04-03T03:23:41.478Z,60.00
2019-04-03T03:26:36.667Z,59.80
2019-04-03T03:29:30.541Z,59.90
2019-04-03T03:32:31.860Z,59.80
2019-04-03T03:35:29.046Z,59.80
2019-04-03T03:38:23.694Z,59.70
2019-04-03T03:41:22.123Z,59.60
2019-04-03T03:44:11.751Z,59.50
2019-04-03T03:47:04.030Z,59.10
2019-04-03T03:49:56.135Z,58.40
2019-04-03T03:53:09.783Z,58.70
2019-04-03T06:19:24.405Z,60.00
2019-04-03T06:22:21.623Z,61.40
2019-04-03T06:25:15.423Z,60.60
2019-04-03T06:28:08.512Z,60.70
2019-04-03T06:39:35.184Z,59.20
2019-04-03T06:42:29.643Z,59.90
2019-04-03T06:45:24.037Z,58.40
2019-04-03T07:10:25.100Z,58.30
2019-04-03T07:13:15.151Z,58.90
2019-04-03T07:16:07.552Z,58.60
2019-04-03T07:24:00.341Z,58.40
2019-04-03T07:26:59.812Z,57.90
2019-04-03T07:29:53.827Z,57.00
2019-04-03T07:33:00.430Z,56.60
2019-04-03T07:39:28.897Z,54.70
2019-04-03T07:42:24.583Z,55.70
2019-04-03T07:45:19.314Z,57.00
2019-04-03T07:48:13.491Z,56.00
2019-04-03T07:54:58.461Z,52.20
2019-04-03T07:57:50.026Z,53.10
2019-04-03T08:00:43.042Z,53.90
2019-04-03T08:03:35.406Z,54.40
2019-04-03T08:06:28.171Z,54.90
2019-04-03T08:09:25.280Z,54.30
2019-04-03T08:12:18.000Z,55.00
2019-04-03T08:15:12.579Z,55.10
2019-04-03T08:18:03.853Z,55.00
2019-04-03T08:20:57.619Z,54.30
2019-04-03T08:28:41.289Z,53.10
2019-04-03T08:31:32.955Z,54.50
2019-04-03T08:34:24.268Z,54.20
2019-04-03T08:37:23.002Z,54.80
2019-04-03T08:40:08.591Z,53.50
2019-04-03T08:43:00.830Z,52.30
2019-04-03T08:45:53.935Z,52.40
2019-04-03T08:48:45.712Z,53.50
2019-04-03T08:51:37.815Z,53.70
2019-04-03T08:58:02.556Z,52.20
2019-04-03T09:00:54.080Z,52.70
2019-04-03T09:03:46.419Z,51.50
2019-04-03T09:06:38.067Z,52.40
2019-04-03T09:09:38.498Z,52.50
2019-04-03T09:12:31.965Z,52.40
2019-04-03T09:15:25.693Z,52.20
2019-04-03T09:18:17.309Z,51.40
2019-04-03T09:21:09.372Z,52.10
2019-04-03T09:24:01.821Z,52.10
2019-04-03T09:26:53.383Z,51.60
2019-04-03T09:29:45.810Z,51.20
2019-04-03T09:32:37.674Z,49.00
2019-04-03T09:35:29.081Z,49.90
2019-04-03T09:38:20.786Z,50.70
2019-04-03T10:03:58.512Z,49.40
2019-04-03T10:06:50.186Z,49.30
2019-04-03T10:09:43.808Z,49.80
2019-04-03T10:12:39.687Z,48.60
2019-04-03T10:15:32.028Z,49.20
2019-04-03T10:18:23.890Z,47.50
2019-04-03T10:21:19.203Z,46.80
2019-04-03T10:24:09.982Z,47.10
2019-04-03T10:27:04.954Z,47.90
2019-04-03T10:29:57.202Z,46.20
2019-04-03T10:32:49.257Z,46.10
2019-04-03T10:35:40.505Z,45.90
2019-04-03T10:38:32.785Z,47.00
2019-04-03T10:41:24.131Z,47.00
2019-04-03T10:44:16.043Z,45.50
2019-04-03T10:47:08.119Z,46.00
2019-04-03T10:50:02.064Z,46.90
2019-04-03T10:52:52.529Z,46.90
2019-04-03T10:55:43.952Z,46.70
2019-04-03T10:58:37.937Z,47.00
2019-04-03T11:01:28.894Z,46.50
2019-04-03T11:04:20.821Z,47.20
2019-04-03T11:07:19.724Z,47.90
2019-04-03T11:10:13.900Z,48.80
2019-04-03T11:13:07.809Z,48.50
2019-04-03T11:15:59.398Z,47.90
2019-04-03T11:18:58.870Z,49.20
2019-04-03T11:21:44.964Z,49.10
2019-04-03T11:24:42.518Z,48.70
2019-04-03T11:27:42.202Z,49.20
2019-04-03T11:30:27.553Z,48.70
2019-04-03T11:33:20.272Z,49.10
2019-04-03T11:36:11.509Z,49.20
2019-04-03T11:39:12.642Z,49.50
2019-04-03T11:41:56.272Z,48.60
2019-04-03T11:44:49.319Z,49.20
2019-04-03T11:47:41.405Z,49.50
2019-04-03T11:50:34.619Z,48.90
2019-04-03T11:53:26.007Z,49.30
2019-04-03T11:56:18.482Z,49.50
2019-04-03T11:59:09.541Z,49.70
2019-04-03T12:02:03.987Z,49.80
2019-04-03T12:04:56.076Z,48.90
2019-04-03T12:07:47.986Z,49.20
2019-04-03T12:10:40.603Z,49.50
2019-04-03T12:13:32.388Z,48.80
2019-04-03T12:16:25.604Z,48.90
2019-04-03T12:19:17.253Z,48.80
2019-04-03T12:22:08.339Z,48.70
2019-04-03T12:24:59.910Z,48.90
2019-04-03T12:27:51.547Z,49.30
2019-04-03T12:30:42.650Z,53.50
2019-04-03T12:33:34.467Z,55.30
2019-04-03T12:36:27.043Z,56.40
2019-04-03T12:39:28.848Z,56.50
2019-04-03T12:42:20.924Z,56.30
2019-04-03T12:45:13.478Z,57.40
2019-04-03T12:48:06.803Z,57.30
2019-04-03T12:50:59.378Z,56.80
2019-04-03T12:53:51.347Z,56.50
2019-04-03T12:56:42.886Z,55.80
2019-04-03T12:59:34.120Z,55.40
2019-04-03T13:02:25.787Z,55.20
2019-04-03T13:05:18.805Z,55.40
2019-04-03T13:08:11.547Z,55.70
2019-04-03T13:11:04.502Z,55.60
2019-04-03T13:13:58.856Z,55.90
2019-04-03T13:16:48.440Z,56.10
2019-04-03T13:19:39.955Z,56.30
2019-04-03T13:22:32.328Z,56.50
2019-04-03T13:25:24.856Z,56.70
2019-04-03T13:44:25.990Z,57.80
2019-04-03T13:47:15.236Z,58.70
2019-04-03T13:50:07.348Z,58.60
2019-04-03T13:53:00.363Z,58.70
2019-04-03T13:55:53.113Z,58.80
2019-04-03T13:58:45.213Z,59.00
2019-04-03T14:01:37.885Z,59.10
2019-04-03T14:14:32.006Z,58.50
2019-04-03T14:17:23.681Z,59.00
2019-04-03T14:20:15.406Z,59.10
2019-04-03T14:23:07.708Z,59.00
2019-04-03T14:26:05.225Z,59.30
2019-04-03T14:28:52.095Z,60.10
2019-04-03T14:31:43.864Z,59.30
2019-04-03T14:34:42.336Z,59.80
2019-04-03T14:37:33.537Z,59.80
2019-04-03T14:40:25.066Z,59.60
2019-04-03T14:43:16.819Z,59.90
2019-04-03T14:46:08.512Z,59.50
2019-04-03T14:49:02.989Z,59.40
2019-04-03T14:51:52.386Z,59.30
2019-04-03T14:54:45.128Z,58.40
2019-04-03T14:57:37.348Z,57.70
2019-04-03T15:00:32.337Z,58.40
2019-04-03T15:03:23.796Z,58.10
2019-04-03T15:06:16.772Z,57.90
2019-04-03T15:09:10.301Z,58.20
2019-04-03T15:12:01.957Z,58.30
2019-04-03T15:14:55.298Z,58.60
2019-04-03T15:17:47.746Z,58.90
2019-04-03T15:20:39.020Z,59.10
2019-04-03T15:23:31.047Z,58.50
2019-04-03T15:26:23.192Z,58.40
2019-04-03T15:29:15.582Z,58.30
2019-04-03T15:32:07.353Z,59.20
2019-04-03T15:35:01.605Z,59.30
2019-04-03T15:37:54.080Z,59.30
2019-04-03T15:40:48.173Z,59.40
2019-04-03T15:43:39.346Z,58.90
2019-04-03T15:46:34.160Z,58.80
2019-04-03T15:49:26.741Z,58.50
2019-04-03T15:52:18.672Z,58.30
2019-04-03T15:55:10.633Z,58.20
2019-04-03T15:58:02.729Z,58.30
2019-04-03T16:00:54.074Z,57.30
2019-04-03T16:03:48.788Z,57.60
2019-04-03T16:06:39.250Z,57.90
2019-04-03T16:09:31.133Z,57.30
2019-04-03T16:12:36.436Z,57.00
2019-04-03T16:15:29.912Z,57.30
2019-04-03T16:18:23.014Z,57.50
2019-04-03T16:21:15.581Z,57.20
2019-04-03T16:24:13.013Z,57.10
2019-04-03T16:27:08.556Z,56.90
2019-04-03T16:30:06.547Z,57.70
2019-04-03T16:33:04.971Z,57.50
2019-04-03T16:35:58.520Z,57.40
2019-04-03T16:38:52.098Z,57.20
2019-04-03T16:41:46.694Z,56.60
2019-04-03T16:44:38.550Z,55.60
2019-04-03T16:47:30.275Z,55.50
2019-04-03T16:50:26.110Z,55.00
2019-04-03T16:53:19.238Z,55.20
2019-04-03T16:56:10.942Z,55.40
2019-04-03T16:59:07.286Z,55.40
2019-04-03T17:01:59.708Z,55.90
2019-04-03T17:04:51.488Z,55.90
2019-04-03T17:07:45.436Z,56.10
2019-04-03T17:10:36.533Z,56.30
2019-04-03T17:13:29.745Z,56.20
2019-04-03T17:16:21.506Z,55.80
2019-04-03T17:19:15.761Z,55.30
2019-04-03T17:22:09.469Z,55.90
2019-04-03T17:25:04.565Z,56.60
2019-04-03T17:27:59.762Z,55.30
2019-04-03T17:30:52.597Z,55.50
2019-04-03T17:33:44.106Z,55.30
2019-04-03T17:36:35.543Z,55.70
2019-04-03T17:39:26.923Z,55.60
2019-04-03T17:42:18.258Z,55.90
2019-04-03T17:45:09.997Z,56.60
2019-04-03T17:48:02.205Z,56.10
2019-04-03T17:50:54.858Z,55.80
2019-04-03T17:53:46.678Z,55.80
2019-04-03T17:56:38.173Z,55.70
2019-04-03T17:59:31.279Z,55.00
2019-04-03T18:02:24.521Z,55.60
2019-04-03T18:05:15.856Z,56.10
2019-04-03T18:08:07.293Z,57.10
2019-04-03T18:15:05.843Z,57.20
2019-04-03T18:17:57.536Z,57.30
2019-04-03T18:20:49.943Z,56.70
2019-04-03T18:23:43.667Z,56.70
2019-04-03T18:26:36.100Z,56.70
2019-04-03T18:29:27.900Z,56.50
2019-04-03T18:32:20.130Z,56.60
2019-04-03T18:35:12.408Z,57.30
2019-04-03T18:38:07.761Z,57.20
2019-04-03T18:40:57.446Z,57.40
2019-04-03T18:43:49.632Z,57.60
2019-04-03T18:46:41.230Z,57.10
2019-04-03T18:49:32.908Z,57.50
2019-04-03T18:52:25.653Z,57.90
2019-04-03T18:55:21.076Z,58.10
2019-04-03T18:58:12.801Z,58.10
2019-04-03T19:01:05.244Z,57.10
2019-04-03T19:03:57.863Z,56.70
2019-04-03T19:06:50.025Z,56.70
2019-04-03T19:09:41.774Z,56.40
2019-04-03T19:12:36.070Z,56.40
2019-04-03T19:15:28.755Z,57.60
2019-04-03T19:18:23.045Z,57.70
2019-04-03T19:21:24.699Z,58.20
2019-04-03T19:24:07.768Z,58.20
2019-04-03T19:27:02.149Z,58.10
2019-04-03T19:29:54.107Z,57.60
2019-04-03T19:32:46.159Z,57.90
2019-04-03T19:35:38.661Z,58.10
2019-04-03T19:38:31.636Z,57.70
2019-04-03T19:41:24.072Z,58.10
2019-04-03T19:44:16.173Z,57.70
2019-04-03T19:47:08.640Z,57.20
2019-04-03T19:50:02.176Z,57.80
2019-04-03T19:52:54.071Z,57.50
2019-04-03T19:55:47.656Z,57.50
2019-04-03T19:58:39.761Z,57.20
2019-04-03T20:01:31.777Z,57.30
2019-04-03T20:04:24.270Z,57.00
2019-04-03T20:07:17.027Z,56.60
2019-04-03T20:10:12.384Z,55.80
2019-04-03T20:13:04.493Z,55.70
2019-04-03T20:15:57.353Z,55.80
2019-04-03T20:18:50.143Z,56.20
2019-04-03T20:21:45.316Z,56.80
2019-04-03T20:24:38.998Z,56.80
2019-04-03T20:27:32.424Z,56.40
2019-04-03T20:30:24.227Z,56.60
2019-04-03T20:33:16.163Z,57.10
2019-04-03T20:36:08.195Z,56.80
2019-04-03T20:39:00.976Z,57.00
2019-04-03T20:41:53.291Z,57.40
2019-04-03T20:44:47.908Z,57.60
2019-04-03T20:47:38.352Z,57.50
2019-04-03T20:50:30.817Z,57.30
2019-04-03T20:53:22.330Z,57.20
2019-04-03T20:56:22.460Z,57.50
2019-04-03T20:59:14.280Z,57.30
2019-04-03T21:02:08.236Z,57.30
2019-04-03T21:04:59.816Z,57.20
2019-04-03T21:07:52.181Z,57.30
2019-04-03T21:10:45.470Z,57.30
2019-04-03T21:13:39.773Z,57.20
2019-04-03T21:16:33.319Z,57.20
2019-04-03T21:19:26.342Z,57.10
2019-04-03T21:22:25.632Z,57.10
2019-04-03T21:25:17.450Z,57.30
2019-04-03T21:28:10.737Z,57.40
2019-04-03T21:31:02.421Z,57.40
2019-04-03T21:33:54.909Z,57.50
2019-04-03T21:36:47.469Z,57.50
2019-04-03T21:39:39.406Z,57.60
2019-04-03T21:42:31.867Z,57.50
2019-04-03T21:45:25.604Z,57.60
2019-04-03T21:48:18.687Z,57.60
2019-04-03T21:51:10.239Z,57.80
2019-04-03T21:54:02.176Z,57.70
2019-04-03T21:56:54.186Z,57.60
2019-04-03T21:59:46.731Z,57.60
2019-04-03T22:02:38.205Z,57.80
2019-04-03T22:05:30.508Z,57.70
2019-04-03T22:08:23.708Z,57.70
2019-04-03T22:11:16.096Z,57.50
2019-04-03T22:14:10.662Z,57.60
2019-04-03T22:17:03.130Z,57.50
2019-04-03T22:19:55.129Z,57.70
2019-04-03T22:22:51.141Z,57.60
2019-04-03T22:25:42.890Z,57.70
2019-04-03T22:28:34.568Z,57.80
2019-04-03T22:31:35.352Z,57.80
2019-04-03T22:34:27.965Z,57.90
2019-04-03T22:37:19.719Z,58.00
2019-04-03T22:40:11.253Z,58.20
2019-04-03T22:43:03.312Z,58.30
2019-04-03T22:45:55.047Z,58.50
2019-04-03T22:48:47.854Z,58.60
2019-04-03T22:51:40.700Z,58.90
2019-04-03T22:54:32.638Z,59.00
2019-04-03T22:57:23.879Z,59.00
2019-04-03T23:00:15.874Z,59.00
2019-04-03T23:03:08.439Z,59.00
2019-04-03T23:06:03.428Z,59.10
2019-04-03T23:08:55.466Z,58.90
2019-04-03T23:11:47.139Z,59.50
2019-04-03T23:14:40.385Z,59.00
2019-04-03T23:17:32.258Z,58.90
2019-04-03T23:20:25.825Z,59.00
2019-04-03T23:23:17.985Z,58.90
2019-04-03T23:26:09.714Z,58.80
2019-04-03T23:29:03.152Z,59.00
2019-04-03T23:31:55.404Z,59.00
2019-04-03T23:34:49.431Z,59.20
2019-04-03T23:37:40.618Z,59.30
2019-04-03T23:40:34.423Z,59.70
2019-04-03T23:43:24.902Z,59.80
2019-04-03T23:46:16.670Z,59.80
2019-04-03T23:49:08.715Z,59.70
2019-04-03T23:52:00.641Z,59.60
2019-04-03T23:54:52.319Z,59.70
2019-04-03T23:57:43.900Z,60.00
